Time;durP1;ratioP1;P1;durP2;ratioP2;P2;SDS_P1;SDS_P2;PMS_P1;PMS_P2;Temp;Humidity;BMP_temperature;BMP_pressure;BME280_temperature;BME280_humidity;BME280_pressure;Samples;Min_cycle;Max_cycle;Signal;HPM_P1;HPM_P2
2023/10/15 07:27:21;;;;;;;;;;;;;;;;;;5223797;22;19947;-74
2023/10/15 07:29:48;;;;;;;;;;;;;;;;;;5015633;28;19929;-74
2023/10/15 07:32:15;;;;;;;;;;;;;;;;;;5015351;28;19926;-74
2023/10/15 07:34:42;;;;;;;;;;;;;;;;;;5015570;28;19925;-73
2023/10/15 07:37:09;;;;;;;;;;;;;;;;;;5015835;28;19925;-74
2023/10/15 07:39:37;;;;;;;;;;;;;;;;;;5015919;28;19933;-74
2023/10/15 07:42:06;;;;;;;;;;;;;;;;;;5017277;28;20405;-70
2023/10/15 07:44:33;;;;;;;;;;;;;;;;;;5018391;28;19979;-70
2023/10/15 07:47:02;;;;;;;;;;;;;;;;;;5017766;28;20292;-71
2023/10/15 07:49:31;;;;;;;;;;;;;;;;;;5018601;28;19933;-71
2023/10/15 07:51:58;;;;;;;;;;;;;;;;;;5019080;28;19932;-71
2023/10/15 07:54:27;;;;;;;;;;;;;;;;;;5018198;28;21394;-70
2023/10/15 07:56:54;;;;;;;;;;;;;;;;;;5018003;28;19930;-70
2023/10/15 07:59:21;;;;;;;;;;;;;;;;;;5019273;28;19932;-70
2023/10/15 08:01:48;;;;;;;;;;;;;;;;;;5017112;28;20303;-70
2023/10/15 08:04:15;;;;;;;;;;;;;;;;;;5016906;28;19933;-70
2023/10/15 08:06:42;;;;;;;;;;;;;;;;;;5017197;28;19925;-71
2023/10/15 08:09:10;;;;;;;;;;;;;;;;;;5015584;28;19933;-71
2023/10/15 08:11:36;;;;;;;;;;;;;;;;;;5015414;28;19991;-71
2023/10/15 08:14:03;;;;;;;;;;;;;;;;;;5015196;28;19932;-71
2023/10/15 08:16:30;;;;;;;;;;;;;;;;;;5014992;28;19933;-71
2023/10/15 08:18:58;;;;;;;;;;;;;;;;;;5014855;28;19932;-71
2023/10/15 08:21:25;;;;;;;;;;;;;;;;;;5014890;28;20015;-71
2023/10/15 08:23:53;;;;;;;;;;;;;;;;;;5014915;28;19933;-74
2023/10/15 08:26:20;;;;;;;;;;;;;;;;;;5014692;28;19932;-72
2023/10/15 08:28:48;;;;;;;;;;;;;;;;;;5014434;28;19925;-73
2023/10/15 08:31:15;;;;;;;;;;;;;;;;;;5015476;28;19929;-73
2023/10/15 08:33:42;;;;;;;;;;;;;;;;;;5015048;28;19976;-77
2023/10/15 08:36:09;;;;;;;;;;;;;;;;;;5016887;28;19932;-75
2023/10/15 08:38:36;;;;;;;;;;;;;;;;;;5016125;28;19925;-75
2023/10/15 08:41:03;;;;;;;;;;;;;;;;;;5015768;28;19925;-75
2023/10/15 08:43:32;;;;;;;;;;;;;;;;;;5015499;28;19933;-75
2023/10/15 08:45:59;;;;;;;;;;;;;;;;;;5016764;28;20008;-74
2023/10/15 08:48:26;;;;;;;;;;;;;;;;;;5018172;28;19979;-76
2023/10/15 08:50:53;;;;;;;;;;;;;;;;;;5017472;28;20012;-75
2023/10/15 08:53:22;;;;;;;;;;;;;;;;;;5015081;28;19925;-74
2023/10/15 08:55:49;;;;;;;;;;;;;;;;;;5014784;28;19984;-75
2023/10/15 08:58:17;;;;;;;;;;;;;;;;;;5014704;28;20012;-74
2023/10/15 09:00:44;;;;;;;;;;;;;;;;;;5014895;28;19933;-74
2023/10/15 09:03:13;;;;;;;;;;;;;;;;;;5015224;28;19925;-74
2023/10/15 09:05:42;;;;;;;;;;;;;;;;;;5014520;28;19926;-76
2023/10/15 09:08:10;;;;;;;;;;;;;;;;;;5014904;28;19926;-75
2023/10/15 09:10:37;;;;;;;;;;;;;;;;;;5014281;28;19947;-75
2023/10/15 09:13:04;;;;;;;;;;;;;;;;;;5015450;28;19925;-75
2023/10/15 09:15:31;;;;;;;;;;;;;;;;;;5015001;28;20302;-75
2023/10/15 09:17:58;;;;;;;;;;;;;;;;;;5014785;28;19932;-75
2023/10/15 09:20:27;;;;;;;;;;;;;;;;;;5014408;28;19929;-76
2023/10/15 09:22:54;;;;;;;;;;;;;;;;;;5017676;28;20048;-76
2023/10/15 09:25:21;;;;;;;;;;;;;;;;;;5018054;28;19932;-75
2023/10/15 09:27:48;;;;;;;;;;;;;;;;;;5017303;28;20293;-75
2023/10/15 09:30:19;;;;;;;;;;;;;;;;;;5018364;28;20020;-75
2023/10/15 09:32:46;;;;;;;;;;;;;;;;;;5017975;28;19995;-75
2023/10/15 09:35:14;;;;;;;;;;;;;;;;;;5018011;28;19926;-75
2023/10/15 09:37:41;;;;;;;;;;;;;;;;;;5017684;28;19975;-75
2023/10/15 09:40:09;;;;;;;;;;;;;;;;;;5017990;28;19926;-73
2023/10/15 09:42:36;;;;;;;;;;;;;;;;;;5018400;28;20021;-74
2023/10/15 09:45:05;;;;;;;;;;;;;;;;;;5018684;28;20413;-75
2023/10/15 09:47:32;;;;;;;;;;;;;;;;;;5018559;28;19988;-74
2023/10/15 09:49:59;;;;;;;;;;;;;;;;;;5018222;28;19926;-74
2023/10/15 09:52:28;;;;;;;;;;;;;;;;;;5018154;28;20036;-74
2023/10/15 09:54:55;;;;;;;;;;;;;;;;;;5018609;28;20020;-75
2023/10/15 09:57:22;;;;;;;;;;;;;;;;;;5017932;28;19925;-75
2023/10/15 09:59:53;;;;;;;;;;;;;;;;;;5018226;28;19926;-75
2023/10/15 10:02:20;;;;;;;;;;;;;;;;;;5017962;28;19980;-73
2023/10/15 10:04:52;;;;;;;;;;;;;;;;;;5017821;28;19932;-73
2023/10/15 10:07:18;;;;;;;;;;;;;;;;;;5017846;28;19995;-74
2023/10/15 10:09:45;;;;;;;;;;;;;;;;;;5017188;28;19929;-74
2023/10/15 10:12:13;;;;;;;;;;;;;;;;;;5017070;28;20365;-73
2023/10/15 10:14:40;;;;;;;;;;;;;;;;;;5016613;28;20395;-74
2023/10/15 10:17:08;;;;;;;;;;;;;;;;;;5016734;28;19925;-73
2023/10/15 10:19:35;;;;;;;;;;;;;;;;;;5016823;28;19929;-73
2023/10/15 10:22:02;;;;;;;;;;;;;;;;;;5016605;28;19932;-73
2023/10/15 10:24:29;;;;;;;;;;;;;;;;;;5017472;28;19925;-72
2023/10/15 10:26:56;;;;;;;;;;;;;;;;;;5016356;28;19933;-73
2023/10/15 10:29:25;;;;;;;;;;;;;;;;;;5016356;28;19925;-73
2023/10/15 10:31:53;;;;;;;;;;;;;;;;;;5016240;28;19929;-73
2023/10/15 10:34:20;;;;;;;;;;;;;;;;;;5016502;28;19971;-72
2023/10/15 10:36:47;;;;;;;;;;;;;;;;;;5016461;28;19926;-74
2023/10/15 10:39:14;;;;;;;;;;;;;;;;;;5016442;28;19925;-73
2023/10/15 10:41:42;;;;;;;;;;;;;;;;;;5016189;28;19932;-75
2023/10/15 10:44:09;;;;;;;;;;;;;;;;;;5017491;28;19926;-76
2023/10/15 10:46:38;;;;;;;;;;;;;;;;;;5016765;28;19948;-76
2023/10/15 10:49:05;;;;;;;;;;;;;;;;;;5016031;28;20431;-75
2023/10/15 10:51:33;;;;;;;;;;;;;;;;;;5016340;28;19930;-75
2023/10/15 10:54:00;;;;;;;;;;;;;;;;;;5015832;28;19956;-75
2023/10/15 10:56:27;;;;;;;;;;;;;;;;;;5016605;28;19933;-75
2023/10/15 10:58:55;;;;;;;;;;;;;;;;;;5016309;28;19925;-75
2023/10/15 11:01:22;;;;;;;;;;;;;;;;;;5016003;28;19929;-75
2023/10/15 11:03:52;;;;;;;;;;;;;;;;;;5016010;28;19929;-75
2023/10/15 11:06:19;;;;;;;;;;;;;;;;;;5015790;28;19926;-75
2023/10/15 11:08:46;;;;;;;;;;;;;;;;;;5017092;28;20406;-80
2023/10/15 11:11:13;;;;;;;;;;;;;;;;;;5022938;28;19925;-79
2023/10/15 11:13:40;;;;;;;;;;;;;;;;;;5022653;28;19933;-78
2023/10/15 11:16:07;;;;;;;;;;;;;;;;;;5032282;28;19926;-77
2023/10/15 11:18:35;;;;;;;;;;;;;;;;;;5023420;28;19926;-79
2023/10/15 11:21:02;;;;;;;;;;;;;;;;;;5017101;28;19936;-78
2023/10/15 11:23:29;;;;;;;;;;;;;;;;;;5016448;28;19929;-78
2023/10/15 11:25:56;;;;;;;;;;;;;;;;;;5017779;28;19929;-80
2023/10/15 11:28:24;;;;;;;;;;;;;;;;;;5017578;28;19925;-74
2023/10/15 11:30:51;;;;;;;;;;;;;;;;;;5015672;28;20004;-74
2023/10/15 11:33:18;;;;;;;;;;;;;;;;;;5015612;28;20009;-74
2023/10/15 11:35:45;;;;;;;;;;;;;;;;;;5016296;28;20016;-77
2023/10/15 11:38:12;;;;;;;;;;;;;;;;;;5016499;28;19925;-78
2023/10/15 11:40:39;;;;;;;;;;;;;;;;;;5016440;28;19926;-76
2023/10/15 11:43:06;;;;;;;;;;;;;;;;;;5015230;28;19930;-76
2023/10/15 11:45:33;;;;;;;;;;;;;;;;;;5014756;28;20290;-76
2023/10/15 11:48:00;;;;;;;;;;;;;;;;;;5015410;28;19925;-77
2023/10/15 11:50:29;;;;;;;;;;;;;;;;;;5015135;28;20390;-77
2023/10/15 11:52:56;;;;;;;;;;;;;;;;;;5015083;28;19930;-76
2023/10/15 11:55:23;;;;;;;;;;;;;;;;;;5014577;28;20394;-76
2023/10/15 11:57:50;;;;;;;;;;;;;;;;;;5015073;28;19925;-77
2023/10/15 12:00:22;;;;;;;;;;;;;;;;;;5015458;28;19929;-77
2023/10/15 12:02:50;;;;;;;;;;;;;;;;;;5015284;28;19925;-74
2023/10/15 12:05:16;;;;;;;;;;;;;;;;;;5014739;28;20113;-74
2023/10/15 12:07:43;;;;;;;;;;;;;;;;;;5014757;28;19925;-73
2023/10/15 12:10:15;;;;;;;;;;;;;;;;;;5014445;28;20318;-73
2023/10/15 12:12:42;;;;;;;;;;;;;;;;;;5014310;28;19980;-74
2023/10/15 12:15:09;;;;;;;;;;;;;;;;;;5014624;28;19980;-75
2023/10/15 12:17:36;;;;;;;;;;;;;;;;;;5014490;28;19937;-74
2023/10/15 12:20:06;;;;;;;;;;;;;;;;;;5014553;28;19948;-74
2023/10/15 12:22:33;;;;;;;;;;;;;;;;;;5014588;28;19925;-74
2023/10/15 12:25:00;;;;;;;;;;;;;;;;;;5014477;28;19926;-74
2023/10/15 12:27:29;;;;;;;;;;;;;;;;;;5013969;28;20398;-74
2023/10/15 12:29:56;;;;;;;;;;;;;;;;;;5014564;28;19951;-75
2023/10/15 12:32:23;;;;;;;;;;;;;;;;;;5014404;28;19933;-74
2023/10/15 12:34:50;;;;;;;;;;;;;;;;;;5014336;28;20414;-74
2023/10/15 12:37:23;;;;;;;;;;;;;;;;;;5014273;28;20042;-75
2023/10/15 12:39:51;;;;;;;;;;;;;;;;;;5014342;28;19929;-75
2023/10/15 12:42:18;;;;;;;;;;;;;;;;;;5014239;28;19926;-75
2023/10/15 12:44:46;;;;;;;;;;;;;;;;;;5014339;28;19925;-74
2023/10/15 12:47:13;;;;;;;;;;;;;;;;;;5014008;28;19925;-75
2023/10/15 12:49:41;;;;;;;;;;;;;;;;;;5014094;28;19925;-74
2023/10/15 12:52:08;;;;;;;;;;;;;;;;;;5014059;28;19926;-74
2023/10/15 12:54:35;;;;;;;;;;;;;;;;;;5014611;28;20429;-74
2023/10/15 12:57:03;;;;;;;;;;;;;;;;;;5020563;28;19925;-74
2023/10/15 12:59:30;;;;;;;;;;;;;;;;;;5020789;28;19925;-74
2023/10/15 13:01:57;;;;;;;;;;;;;;;;;;5021303;28;19936;-74
2023/10/15 13:04:24;;;;;;;;;;;;;;;;;;5020673;28;19933;-74
2023/10/15 13:06:51;;;;;;;;;;;;;;;;;;5020382;28;19925;-73
2023/10/15 13:09:21;;;;;;;;;;;;;;;;;;5020601;28;19925;-73
2023/10/15 13:11:48;;;;;;;;;;;;;;;;;;5020539;28;19965;-74
2023/10/15 13:14:15;;;;;;;;;;;;;;;;;;5020465;28;19925;-74
2023/10/15 13:16:42;;;;;;;;;;;;;;;;;;5020320;28;19932;-74
2023/10/15 13:19:09;;;;;;;;;;;;;;;;;;5020179;28;20374;-74
2023/10/15 13:21:36;;;;;;;;;;;;;;;;;;5019989;28;19936;-74
2023/10/15 13:24:03;;;;;;;;;;;;;;;;;;5020377;28;19925;-74
2023/10/15 13:26:30;;;;;;;;;;;;;;;;;;5020482;28;19926;-74
2023/10/15 13:28:57;;;;;;;;;;;;;;;;;;5020216;28;19932;-74
2023/10/15 13:31:24;;;;;;;;;;;;;;;;;;5020003;28;20279;-73
2023/10/15 13:33:51;;;;;;;;;;;;;;;;;;5020318;28;19926;-74
2023/10/15 13:36:18;;;;;;;;;;;;;;;;;;5020275;28;19929;-74
2023/10/15 13:38:45;;;;;;;;;;;;;;;;;;5020460;28;19933;-74
2023/10/15 13:41:12;;;;;;;;;;;;;;;;;;5043114;23;20283;-71
2023/10/15 13:43:39;;;;;;;;;;;;;;;;;;5020038;28;19980;-70
2023/10/15 15:22:20;;;;;;;;;;;;;;;;;;5040107;28;19917;-78
2023/10/15 15:24:47;;;;;;;;;;;;;;;;;;5039302;28;19909;-78
2023/10/15 15:27:15;;;;;;;;;;;;;;;;;;5036688;28;19976;-79
2023/10/15 15:29:42;;;;;;;;;;;;;;;;;;5035567;28;19924;-78
2023/10/15 15:32:10;;;;;;;;;;;;;;;;;;5035014;28;19929;-77
2023/10/15 15:34:37;;;;;;;;;;;;;;;;;;5030393;28;19925;-80
2023/10/15 15:37:05;;;;;;;;;;;;;;;;;;5031194;28;19925;-76
2023/10/15 15:39:32;;;;;;;;;;;;;;;;;;5025236;28;19981;-78
2023/10/15 15:41:59;;;;;;;;;;;;;;;;;;5025230;28;19929;-78
2023/10/15 15:44:26;;;;;;;;;;;;;;;;;;5023024;28;20290;-78
2023/10/15 15:46:53;;;;;;;;;;;;;;;;;;5022422;28;19929;-78
2023/10/15 15:49:21;;;;;;;;;;;;;;;;;;5021715;28;19925;-76
2023/10/15 15:51:48;;;;;;;;;;;;;;;;;;5020591;28;20398;-75
2023/10/15 15:54:16;;;;;;;;;;;;;;;;;;5020481;28;19925;-75
2023/10/15 15:56:44;;;;;;;;;;;;;;;;;;5020975;28;19988;-75
2023/10/15 15:59:11;;;;;;;;;;;;;;;;;;5016704;28;19976;-75
2023/10/15 16:01:38;;;;;;;;;;;;;;;;;;5016229;28;20394;-75
2023/10/15 16:04:05;;;;;;;;;;;;;;;;;;5018119;28;19933;-76
2023/10/15 16:06:32;;;;;;;;;;;;;;;;;;5016092;28;19925;-75
2023/10/15 16:08:59;;;;;;;;;;;;;;;;;;5016191;28;19925;-76
2023/10/15 16:11:26;;;;;;;;;;;;;;;;;;5020100;28;19926;-76
2023/10/15 16:13:53;;;;;;;;;;;;;;;;;;5016341;28;19925;-76
2023/10/15 16:16:21;;;;;;;;;;;;;;;;;;5015837;28;20342;-76
2023/10/15 16:18:48;;;;;;;;;;;;;;;;;;5015796;28;19969;-76
2023/10/15 16:21:15;;;;;;;;;;;;;;;;;;5015123;28;19925;-76
2023/10/15 16:23:42;;;;;;;;;;;;;;;;;;5015645;28;19932;-76
2023/10/15 16:26:09;;;;;;;;;;;;;;;;;;5038315;23;20020;-76
2023/10/15 16:28:36;;;;;;;;;;;;;;;;;;5015091;28;19932;-76
2023/10/15 16:31:03;;;;;;;;;;;;;;;;;;5014747;28;19933;-77
2023/10/15 16:33:30;;;;;;;;;;;;;;;;;;5014993;28;19930;-76
2023/10/15 16:35:57;;;;;;;;;;;;;;;;;;5015293;28;19926;-76
2023/10/15 16:38:24;;;;;;;;;;;;;;;;;;5015290;28;19926;-75
2023/10/15 16:40:51;;;;;;;;;;;;;;;;;;5015353;28;19925;-75
2023/10/15 16:43:18;;;;;;;;;;;;;;;;;;5014994;28;19925;-75
2023/10/15 16:45:45;;;;;;;;;;;;;;;;;;5015116;28;19932;-76
2023/10/15 16:48:12;;;;;;;;;;;;;;;;;;5014565;28;19930;-76
2023/10/15 16:50:41;;;;;;;;;;;;;;;;;;5015013;28;19932;-76
2023/10/15 16:53:08;;;;;;;;;;;;;;;;;;5015175;28;19960;-75
2023/10/15 16:55:35;;;;;;;;;;;;;;;;;;5016624;28;20000;-76
2023/10/15 16:58:02;;;;;;;;;;;;;;;;;;5015151;28;20140;-73
2023/10/15 17:00:30;;;;;;;;;;;;;;;;;;5014487;28;19925;-73
2023/10/15 17:02:57;;;;;;;;;;;;;;;;;;5015099;28;19932;-72
2023/10/15 17:05:24;;;;;;;;;;;;;;;;;;5014546;28;20306;-75
2023/10/15 17:07:51;;;;;;;;;;;;;;;;;;5014448;28;20390;-75
2023/10/15 17:10:18;;;;;;;;;;;;;;;;;;5014357;28;20024;-75
2023/10/15 17:12:44;;;;;;;;;;;;;;;;;;5014621;28;19933;-75
2023/10/15 17:15:12;;;;;;;;;;;;;;;;;;5015085;28;19925;-75
2023/10/15 17:17:39;;;;;;;;;;;;;;;;;;5015417;28;19929;-75
2023/10/15 17:20:06;;;;;;;;;;;;;;;;;;5014814;28;19925;-76
2023/10/15 17:22:33;;;;;;;;;;;;;;;;;;5014625;28;19929;-76
2023/10/15 17:25:00;;;;;;;;;;;;;;;;;;5014351;28;19933;-75
2023/10/15 17:27:28;;;;;;;;;;;;;;;;;;5014578;28;19932;-75
2023/10/15 17:29:55;;;;;;;;;;;;;;;;;;5014477;28;19932;-74
2023/10/15 17:32:22;;;;;;;;;;;;;;;;;;5014320;28;19925;-76
2023/10/15 17:34:49;;;;;;;;;;;;;;;;;;5014694;28;19944;-74
2023/10/15 17:37:16;;;;;;;;;;;;;;;;;;5014125;28;20409;-72
2023/10/15 17:39:43;;;;;;;;;;;;;;;;;;5014163;28;19930;-74
2023/10/15 17:42:12;;;;;;;;;;;;;;;;;;5015542;28;19960;-73
2023/10/15 17:44:38;;;;;;;;;;;;;;;;;;5017948;28;19948;-74
2023/10/15 17:47:06;;;;;;;;;;;;;;;;;;5017590;28;20371;-72
2023/10/15 17:49:33;;;;;;;;;;;;;;;;;;5018036;28;19992;-74
2023/10/15 17:51:59;;;;;;;;;;;;;;;;;;5017977;28;19926;-76
2023/10/15 17:54:27;;;;;;;;;;;;;;;;;;5018943;28;19925;-74
2023/10/15 17:56:55;;;;;;;;;;;;;;;;;;5018030;28;19976;-76
2023/10/15 17:59:22;;;;;;;;;;;;;;;;;;5017545;28;19934;-74
2023/10/15 18:01:49;;;;;;;;;;;;;;;;;;5017735;28;19926;-72
2023/10/15 18:04:16;;;;;;;;;;;;;;;;;;5017724;28;20371;-74
2023/10/15 18:06:43;;;;;;;;;;;;;;;;;;5017224;28;20365;-74
2023/10/15 18:09:12;;;;;;;;;;;;;;;;;;5017520;28;19925;-74
2023/10/15 18:11:40;;;;;;;;;;;;;;;;;;5017253;28;19975;-75
2023/10/15 18:14:08;;;;;;;;;;;;;;;;;;5017531;28;19929;-74
2023/10/15 18:16:35;;;;;;;;;;;;;;;;;;5017791;28;19925;-74
2023/10/15 18:19:02;;;;;;;;;;;;;;;;;;5017753;28;20333;-73
2023/10/15 18:21:30;;;;;;;;;;;;;;;;;;5017773;28;19925;-73
2023/10/15 18:23:59;;;;;;;;;;;;;;;;;;5017461;28;20397;-73
2023/10/15 18:26:28;;;;;;;;;;;;;;;;;;5016824;28;20383;-73
2023/10/15 18:28:54;;;;;;;;;;;;;;;;;;5017956;28;19926;-74
2023/10/15 18:31:21;;;;;;;;;;;;;;;;;;5017980;28;19929;-73
2023/10/15 18:33:48;;;;;;;;;;;;;;;;;;5018169;28;19925;-73
2023/10/15 18:36:16;;;;;;;;;;;;;;;;;;5020275;28;19950;-74
2023/10/15 18:38:42;;;;;;;;;;;;;;;;;;5030500;28;19968;-76
2023/10/15 18:41:10;;;;;;;;;;;;;;;;;;5031135;28;19933;-77
2023/10/15 18:43:38;;;;;;;;;;;;;;;;;;5020698;28;20024;-76
2023/10/15 18:46:06;;;;;;;;;;;;;;;;;;5017003;28;20393;-74
2023/10/15 18:48:33;;;;;;;;;;;;;;;;;;5017393;28;19937;-75
2023/10/15 18:51:00;;;;;;;;;;;;;;;;;;5017367;28;20016;-74
2023/10/15 18:53:27;;;;;;;;;;;;;;;;;;5016746;28;19932;-75
2023/10/15 18:55:56;;;;;;;;;;;;;;;;;;5017074;28;19948;-74
2023/10/15 18:58:22;;;;;;;;;;;;;;;;;;5016106;28;20371;-74
2023/10/15 19:00:49;;;;;;;;;;;;;;;;;;5016380;28;19930;-74
2023/10/15 19:03:16;;;;;;;;;;;;;;;;;;5016303;28;19925;-74
2023/10/15 19:05:43;;;;;;;;;;;;;;;;;;5016195;28;19929;-75
2023/10/15 19:08:11;;;;;;;;;;;;;;;;;;5016054;28;19929;-75
2023/10/15 19:10:38;;;;;;;;;;;;;;;;;;5015817;28;20433;-75
2023/10/15 19:13:06;;;;;;;;;;;;;;;;;;5016202;28;19926;-75
2023/10/15 19:15:35;;;;;;;;;;;;;;;;;;5016141;28;19937;-75
2023/10/15 19:18:03;;;;;;;;;;;;;;;;;;5016181;28;19925;-76
2023/10/15 19:20:31;;;;;;;;;;;;;;;;;;5016153;28;19925;-76
2023/10/15 19:22:57;;;;;;;;;;;;;;;;;;5016089;28;19930;-77
2023/10/15 19:25:27;;;;;;;;;;;;;;;;;;5015384;28;20410;-75
2023/10/15 19:27:54;;;;;;;;;;;;;;;;;;5016065;28;20012;-75
2023/10/15 19:30:25;;;;;;;;;;;;;;;;;;5018431;28;19925;-75
2023/10/15 19:32:52;;;;;;;;;;;;;;;;;;5017299;28;19925;-75
2023/10/15 19:35:19;;;;;;;;;;;;;;;;;;5022034;28;19925;-75
2023/10/15 19:37:47;;;;;;;;;;;;;;;;;;5015856;28;19925;-76
2023/10/15 19:40:14;;;;;;;;;;;;;;;;;;5015292;28;20394;-76
2023/10/15 19:42:41;;;;;;;;;;;;;;;;;;5015550;28;19948;-75
2023/10/15 19:45:08;;;;;;;;;;;;;;;;;;5015141;28;19929;-73
2023/10/15 19:47:35;;;;;;;;;;;;;;;;;;5015317;28;19925;-74
2023/10/15 19:50:02;;;;;;;;;;;;;;;;;;5015065;28;19925;-74
2023/10/15 19:52:29;;;;;;;;;;;;;;;;;;5015389;28;19933;-74
2023/10/15 19:54:56;;;;;;;;;;;;;;;;;;5014671;28;20306;-74
2023/10/15 19:57:23;;;;;;;;;;;;;;;;;;5015782;28;19925;-74
2023/10/15 19:59:50;;;;;;;;;;;;;;;;;;5015632;28;20312;-75
2023/10/15 20:02:17;;;;;;;;;;;;;;;;;;5015302;28;19933;-77
2023/10/15 20:04:43;;;;;;;;;;;;;;;;;;5014374;28;19933;-78
2023/10/15 20:07:10;;;;;;;;;;;;;;;;;;5014848;28;19925;-73
2023/10/15 20:09:37;;;;;;;;;;;;;;;;;;5014677;28;19932;-73
2023/10/15 20:12:04;;;;;;;;;;;;;;;;;;5014768;28;19937;-73
2023/10/15 20:14:31;;;;;;;;;;;;;;;;;;5014692;28;19925;-76
2023/10/15 20:16:59;;;;;;;;;;;;;;;;;;5014410;28;19925;-73
2023/10/15 20:19:27;;;;;;;;;;;;;;;;;;5015439;28;19925;-76
2023/10/15 20:21:54;;;;;;;;;;;;;;;;;;5014541;28;19925;-76
2023/10/15 20:24:21;;;;;;;;;;;;;;;;;;5014474;28;20401;-76
2023/10/15 20:26:48;;;;;;;;;;;;;;;;;;5013801;28;20441;-76
2023/10/15 20:29:14;;;;;;;;;;;;;;;;;;5014423;28;19929;-75
2023/10/15 20:31:43;;;;;;;;;;;;;;;;;;5015467;28;19925;-74
2023/10/15 20:34:13;;;;;;;;;;;;;;;;;;5015092;28;19971;-74
2023/10/15 20:36:40;;;;;;;;;;;;;;;;;;5014168;28;19998;-74
2023/10/15 20:39:09;;;;;;;;;;;;;;;;;;5014075;28;19932;-74
2023/10/15 20:41:37;;;;;;;;;;;;;;;;;;5014197;28;19980;-75
2023/10/15 20:44:04;;;;;;;;;;;;;;;;;;5014032;28;19993;-76
2023/10/15 20:46:32;;;;;;;;;;;;;;;;;;5014056;28;20036;-75
2023/10/15 20:48:59;;;;;;;;;;;;;;;;;;5014327;28;19925;-75
2023/10/15 20:51:26;;;;;;;;;;;;;;;;;;5023059;28;19930;-75
2023/10/15 20:53:53;;;;;;;;;;;;;;;;;;5025457;28;19932;-75
2023/10/15 20:56:20;;;;;;;;;;;;;;;;;;5024399;28;19925;-75
2023/10/15 20:58:46;;;;;;;;;;;;;;;;;;5020254;28;19933;-76
2023/10/15 21:01:13;;;;;;;;;;;;;;;;;;5018784;28;19926;-74
2023/10/15 21:03:40;;;;;;;;;;;;;;;;;;5025637;28;19951;-74
2023/10/15 21:06:07;;;;;;;;;;;;;;;;;;5023364;28;19933;-74
2023/10/15 21:08:34;;;;;;;;;;;;;;;;;;5021976;28;19936;-74
2023/10/15 21:11:01;;;;;;;;;;;;;;;;;;5019477;28;19926;-75
2023/10/15 21:13:29;;;;;;;;;;;;;;;;;;5019617;28;19933;-74
2023/10/15 21:15:56;;;;;;;;;;;;;;;;;;5017552;28;19926;-74
2023/10/15 21:18:23;;;;;;;;;;;;;;;;;;5019887;28;19925;-75
2023/10/15 21:20:50;;;;;;;;;;;;;;;;;;5019194;28;19929;-75
2023/10/15 21:23:17;;;;;;;;;;;;;;;;;;5018814;28;20382;-74
2023/10/15 21:25:44;;;;;;;;;;;;;;;;;;5018771;28;19925;-75
2023/10/15 21:28:11;;;;;;;;;;;;;;;;;;5018409;28;19926;-74
2023/10/15 21:30:37;;;;;;;;;;;;;;;;;;5018873;28;19925;-74
2023/10/15 21:33:04;;;;;;;;;;;;;;;;;;5018452;28;19933;-73
2023/10/15 21:35:31;;;;;;;;;;;;;;;;;;5018556;28;19932;-74
2023/10/15 21:37:58;;;;;;;;;;;;;;;;;;5017499;28;20398;-74
2023/10/15 21:40:25;;;;;;;;;;;;;;;;;;5017470;28;19929;-73
2023/10/15 21:42:53;;;;;;;;;;;;;;;;;;5017187;28;19925;-75
2023/10/15 21:45:20;;;;;;;;;;;;;;;;;;5017363;28;19956;-74
2023/10/15 21:47:47;;;;;;;;;;;;;;;;;;5017309;28;19996;-74
2023/10/15 21:50:16;;;;;;;;;;;;;;;;;;5016971;28;19926;-73
2023/10/15 21:52:46;;;;;;;;;;;;;;;;;;5017243;28;19925;-74
2023/10/15 21:55:13;;;;;;;;;;;;;;;;;;5017144;28;19925;-73
2023/10/15 21:57:40;;;;;;;;;;;;;;;;;;5017210;28;19925;-73
2023/10/15 22:00:10;;;;;;;;;;;;;;;;;;5017289;28;20024;-73
2023/10/15 22:02:37;;;;;;;;;;;;;;;;;;5017391;28;19925;-74
2023/10/15 22:05:09;;;;;;;;;;;;;;;;;;5017926;28;19932;-74
2023/10/15 22:07:36;;;;;;;;;;;;;;;;;;5018516;28;20392;-75
2023/10/15 22:10:03;;;;;;;;;;;;;;;;;;5018337;28;19925;-74
2023/10/15 22:12:30;;;;;;;;;;;;;;;;;;5017052;28;19926;-74
2023/10/15 22:14:57;;;;;;;;;;;;;;;;;;5016768;28;19932;-75
2023/10/15 22:17:24;;;;;;;;;;;;;;;;;;5016832;28;19926;-74
2023/10/15 22:19:50;;;;;;;;;;;;;;;;;;5016482;28;19926;-75
2023/10/15 22:22:17;;;;;;;;;;;;;;;;;;5016768;28;19926;-75
2023/10/15 22:24:44;;;;;;;;;;;;;;;;;;5016601;28;19925;-74
2023/10/15 22:27:14;;;;;;;;;;;;;;;;;;5016486;28;20044;-74
